sensor_id;sensor_type;location;lat;lon;timestamp;temperature;humidity
41592;DHT22;28026;48.562;14.440;2023-04-24T00:02:14;10.00;99.90
41592;DHT22;28026;48.562;14.440;2023-04-24T00:04:45;10.00;99.90
41592;DHT22;28026;48.562;14.440;2023-04-24T00:07:16;10.00;99.90
41592;DHT22;28026;48.562;14.440;2023-04-24T00:09:47;10.00;99.90
41592;DHT22;28026;48.562;14.440;2023-04-24T00:12:18;10.00;99.90
41592;DHT22;28026;48.562;14.440;2023-04-24T00:14:49;10.00;99.90
41592;DHT22;28026;48.562;14.440;2023-04-24T00:17:20;9.80;99.90
41592;DHT22;28026;48.562;14.440;2023-04-24T00:19:51;9.70;99.90
41592;DHT22;28026;48.562;14.440;2023-04-24T00:22:28;9.60;99.90
41592;DHT22;28026;48.562;14.440;2023-04-24T00:24:59;9.60;99.90
41592;DHT22;28026;48.562;14.440;2023-04-24T00:27:30;9.60;99.90
41592;DHT22;28026;48.562;14.440;2023-04-24T00:30:01;9.50;99.90
41592;DHT22;28026;48.562;14.440;2023-04-24T00:32:31;9.50;99.90
41592;DHT22;28026;48.562;14.440;2023-04-24T00:35:02;9.50;99.90
41592;DHT22;28026;48.562;14.440;2023-04-24T00:37:34;9.50;99.90
41592;DHT22;28026;48.562;14.440;2023-04-24T00:40:06;9.50;99.90
41592;DHT22;28026;48.562;14.440;2023-04-24T00:42:37;9.60;99.90
41592;DHT22;28026;48.562;14.440;2023-04-24T00:45:10;9.50;99.90
41592;DHT22;28026;48.562;14.440;2023-04-24T00:47:43;9.50;99.90
41592;DHT22;28026;48.562;14.440;2023-04-24T00:50:15;9.40;99.90
41592;DHT22;28026;48.562;14.440;2023-04-24T00:52:46;9.30;99.90
41592;DHT22;28026;48.562;14.440;2023-04-24T00:55:17;9.40;99.90
41592;DHT22;28026;48.562;14.440;2023-04-24T00:57:48;9.50;99.90
41592;DHT22;28026;48.562;14.440;2023-04-24T01:00:19;9.40;99.90
41592;DHT22;28026;48.562;14.440;2023-04-24T01:02:50;9.30;99.90
41592;DHT22;28026;48.562;14.440;2023-04-24T01:05:23;9.40;99.90
41592;DHT22;28026;48.562;14.440;2023-04-24T01:07:54;9.60;99.90
41592;DHT22;28026;48.562;14.440;2023-04-24T01:10:25;9.70;99.90
41592;DHT22;28026;48.562;14.440;2023-04-24T01:12:59;9.60;99.90
41592;DHT22;28026;48.562;14.440;2023-04-24T01:15:30;9.50;99.90
41592;DHT22;28026;48.562;14.440;2023-04-24T01:18:01;9.50;99.90
41592;DHT22;28026;48.562;14.440;2023-04-24T01:20:33;9.50;99.90
41592;DHT22;28026;48.562;14.440;2023-04-24T01:23:05;9.60;99.90
41592;DHT22;28026;48.562;14.440;2023-04-24T01:25:37;9.60;99.90
41592;DHT22;28026;48.562;14.440;2023-04-24T01:28:08;9.70;99.90
41592;DHT22;28026;48.562;14.440;2023-04-24T01:30:39;9.70;99.90
41592;DHT22;28026;48.562;14.440;2023-04-24T01:33:10;9.80;99.90
41592;DHT22;28026;48.562;14.440;2023-04-24T01:35:41;9.80;99.90
41592;DHT22;28026;48.562;14.440;2023-04-24T01:38:12;9.90;99.90
41592;DHT22;28026;48.562;14.440;2023-04-24T01:40:43;9.90;99.90
41592;DHT22;28026;48.562;14.440;2023-04-24T01:43:15;9.70;99.90
41592;DHT22;28026;48.562;14.440;2023-04-24T01:45:46;9.70;99.90
41592;DHT22;28026;48.562;14.440;2023-04-24T01:48:17;9.70;99.90
41592;DHT22;28026;48.562;14.440;2023-04-24T01:50:48;9.70;99.90
41592;DHT22;28026;48.562;14.440;2023-04-24T01:53:19;9.70;99.90
41592;DHT22;28026;48.562;14.440;2023-04-24T01:55:49;9.70;99.90
41592;DHT22;28026;48.562;14.440;2023-04-24T01:58:20;9.70;99.90
41592;DHT22;28026;48.562;14.440;2023-04-24T02:00:52;9.60;99.90
41592;DHT22;28026;48.562;14.440;2023-04-24T02:03:26;9.70;99.90
41592;DHT22;28026;48.562;14.440;2023-04-24T02:05:57;9.60;99.90
41592;DHT22;28026;48.562;14.440;2023-04-24T02:08:28;9.50;99.90
41592;DHT22;28026;48.562;14.440;2023-04-24T02:10:59;9.50;99.90
41592;DHT22;28026;48.562;14.440;2023-04-24T02:13:31;9.50;99.90
41592;DHT22;28026;48.562;14.440;2023-04-24T02:16:02;9.40;99.90
41592;DHT22;28026;48.562;14.440;2023-04-24T02:18:33;9.40;99.90
41592;DHT22;28026;48.562;14.440;2023-04-24T02:21:04;9.20;99.90
41592;DHT22;28026;48.562;14.440;2023-04-24T02:23:34;9.30;99.90
41592;DHT22;28026;48.562;14.440;2023-04-24T02:26:05;9.30;99.90
41592;DHT22;28026;48.562;14.440;2023-04-24T02:28:36;9.20;99.90
41592;DHT22;28026;48.562;14.440;2023-04-24T02:31:07;9.20;99.90
41592;DHT22;28026;48.562;14.440;2023-04-24T02:33:38;9.10;99.90
41592;DHT22;28026;48.562;14.440;2023-04-24T02:36:09;9.20;99.90
41592;DHT22;28026;48.562;14.440;2023-04-24T02:38:40;9.20;99.90
41592;DHT22;28026;48.562;14.440;2023-04-24T02:41:10;9.30;99.90
41592;DHT22;28026;48.562;14.440;2023-04-24T02:43:41;9.30;99.90
41592;DHT22;28026;48.562;14.440;2023-04-24T02:46:12;9.40;99.90
41592;DHT22;28026;48.562;14.440;2023-04-24T02:48:43;9.50;99.90
41592;DHT22;28026;48.562;14.440;2023-04-24T02:51:13;9.50;99.90
41592;DHT22;28026;48.562;14.440;2023-04-24T02:53:44;9.50;99.90
41592;DHT22;28026;48.562;14.440;2023-04-24T02:56:15;9.30;99.90
41592;DHT22;28026;48.562;14.440;2023-04-24T02:58:46;9.10;99.90
41592;DHT22;28026;48.562;14.440;2023-04-24T03:01:16;9.10;99.90
41592;DHT22;28026;48.562;14.440;2023-04-24T03:03:48;9.00;99.90
41592;DHT22;28026;48.562;14.440;2023-04-24T03:06:19;8.90;99.90
41592;DHT22;28026;48.562;14.440;2023-04-24T03:08:51;8.90;99.90
41592;DHT22;28026;48.562;14.440;2023-04-24T03:11:22;8.90;99.90
41592;DHT22;28026;48.562;14.440;2023-04-24T03:13:52;8.80;99.90
41592;DHT22;28026;48.562;14.440;2023-04-24T03:16:23;8.70;99.90
41592;DHT22;28026;48.562;14.440;2023-04-24T03:18:54;8.90;99.90
41592;DHT22;28026;48.562;14.440;2023-04-24T03:21:25;8.80;99.90
41592;DHT22;28026;48.562;14.440;2023-04-24T03:23:56;8.80;99.90
41592;DHT22;28026;48.562;14.440;2023-04-24T03:26:27;8.90;99.90
41592;DHT22;28026;48.562;14.440;2023-04-24T03:28:58;9.00;99.90
41592;DHT22;28026;48.562;14.440;2023-04-24T03:31:28;9.10;99.90
41592;DHT22;28026;48.562;14.440;2023-04-24T03:34:00;9.10;99.90
41592;DHT22;28026;48.562;14.440;2023-04-24T03:36:30;9.00;99.90
41592;DHT22;28026;48.562;14.440;2023-04-24T03:39:01;9.10;99.90
41592;DHT22;28026;48.562;14.440;2023-04-24T03:41:33;9.10;99.90
41592;DHT22;28026;48.562;14.440;2023-04-24T03:44:03;9.10;99.90
41592;DHT22;28026;48.562;14.440;2023-04-24T03:46:34;9.20;99.90
41592;DHT22;28026;48.562;14.440;2023-04-24T03:49:05;9.30;99.90
41592;DHT22;28026;48.562;14.440;2023-04-24T03:51:36;9.50;99.90
41592;DHT22;28026;48.562;14.440;2023-04-24T03:54:07;9.60;99.90
41592;DHT22;28026;48.562;14.440;2023-04-24T03:56:37;9.70;99.90
41592;DHT22;28026;48.562;14.440;2023-04-24T03:59:08;9.70;99.90
41592;DHT22;28026;48.562;14.440;2023-04-24T04:01:39;9.70;99.90
41592;DHT22;28026;48.562;14.440;2023-04-24T04:04:10;9.80;99.90
41592;DHT22;28026;48.562;14.440;2023-04-24T04:06:41;9.70;99.90
41592;DHT22;28026;48.562;14.440;2023-04-24T04:09:14;9.70;99.90
41592;DHT22;28026;48.562;14.440;2023-04-24T04:11:45;9.70;99.90
41592;DHT22;28026;48.562;14.440;2023-04-24T04:14:16;9.50;99.90
41592;DHT22;28026;48.562;14.440;2023-04-24T04:16:47;9.20;99.90
41592;DHT22;28026;48.562;14.440;2023-04-24T04:19:18;9.10;99.90
41592;DHT22;28026;48.562;14.440;2023-04-24T04:21:48;9.00;99.90
41592;DHT22;28026;48.562;14.440;2023-04-24T04:24:23;9.10;99.90
41592;DHT22;28026;48.562;14.440;2023-04-24T04:26:54;9.20;99.90
41592;DHT22;28026;48.562;14.440;2023-04-24T04:29:28;9.10;99.90
41592;DHT22;28026;48.562;14.440;2023-04-24T04:31:59;9.10;99.90
41592;DHT22;28026;48.562;14.440;2023-04-24T04:34:29;9.20;99.90
41592;DHT22;28026;48.562;14.440;2023-04-24T04:37:01;9.20;99.90
41592;DHT22;28026;48.562;14.440;2023-04-24T04:39:32;9.20;99.90
41592;DHT22;28026;48.562;14.440;2023-04-24T04:42:03;9.30;99.90
41592;DHT22;28026;48.562;14.440;2023-04-24T04:44:34;9.40;99.90
41592;DHT22;28026;48.562;14.440;2023-04-24T04:47:06;9.50;99.90
41592;DHT22;28026;48.562;14.440;2023-04-24T04:49:38;9.40;99.90
41592;DHT22;28026;48.562;14.440;2023-04-24T04:52:09;9.30;99.90
41592;DHT22;28026;48.562;14.440;2023-04-24T04:54:40;9.20;99.90
41592;DHT22;28026;48.562;14.440;2023-04-24T04:57:11;9.30;99.90
41592;DHT22;28026;48.562;14.440;2023-04-24T04:59:42;9.30;99.90
41592;DHT22;28026;48.562;14.440;2023-04-24T05:02:13;9.40;99.90
41592;DHT22;28026;48.562;14.440;2023-04-24T05:04:44;9.30;99.90
41592;DHT22;28026;48.562;14.440;2023-04-24T05:07:15;9.30;99.90
41592;DHT22;28026;48.562;14.440;2023-04-24T05:09:46;9.20;99.90
41592;DHT22;28026;48.562;14.440;2023-04-24T05:12:16;9.20;99.90
41592;DHT22;28026;48.562;14.440;2023-04-24T05:14:47;9.30;99.90
41592;DHT22;28026;48.562;14.440;2023-04-24T05:17:18;9.30;99.90
41592;DHT22;28026;48.562;14.440;2023-04-24T05:19:49;9.30;99.90
41592;DHT22;28026;48.562;14.440;2023-04-24T05:22:20;9.40;99.90
41592;DHT22;28026;48.562;14.440;2023-04-24T05:24:51;9.50;99.90
41592;DHT22;28026;48.562;14.440;2023-04-24T05:27:22;9.50;99.90
41592;DHT22;28026;48.562;14.440;2023-04-24T05:29:53;9.60;99.90
41592;DHT22;28026;48.562;14.440;2023-04-24T05:32:24;9.40;99.90
41592;DHT22;28026;48.562;14.440;2023-04-24T05:34:54;9.20;99.90
41592;DHT22;28026;48.562;14.440;2023-04-24T05:37:25;9.20;99.90
41592;DHT22;28026;48.562;14.440;2023-04-24T05:39:56;9.00;99.90
41592;DHT22;28026;48.562;14.440;2023-04-24T05:42:27;9.10;99.90
41592;DHT22;28026;48.562;14.440;2023-04-24T05:44:58;9.20;99.90
41592;DHT22;28026;48.562;14.440;2023-04-24T05:47:28;9.20;99.90
41592;DHT22;28026;48.562;14.440;2023-04-24T05:50:00;9.20;99.90
41592;DHT22;28026;48.562;14.440;2023-04-24T05:52:30;9.20;99.90
41592;DHT22;28026;48.562;14.440;2023-04-24T05:55:01;9.10;99.90
41592;DHT22;28026;48.562;14.440;2023-04-24T05:57:32;9.10;99.90
41592;DHT22;28026;48.562;14.440;2023-04-24T06:00:03;9.10;99.90
41592;DHT22;28026;48.562;14.440;2023-04-24T06:02:35;9.10;99.90
41592;DHT22;28026;48.562;14.440;2023-04-24T06:05:06;9.10;99.90
41592;DHT22;28026;48.562;14.440;2023-04-24T06:07:38;9.30;99.90
41592;DHT22;28026;48.562;14.440;2023-04-24T06:10:09;9.20;99.90
41592;DHT22;28026;48.562;14.440;2023-04-24T06:12:40;9.20;99.90
41592;DHT22;28026;48.562;14.440;2023-04-24T06:15:11;9.20;99.90
41592;DHT22;28026;48.562;14.440;2023-04-24T06:17:43;9.20;99.90
41592;DHT22;28026;48.562;14.440;2023-04-24T06:20:13;9.30;99.90
41592;DHT22;28026;48.562;14.440;2023-04-24T06:22:44;9.20;99.90
41592;DHT22;28026;48.562;14.440;2023-04-24T06:25:15;9.30;99.90
41592;DHT22;28026;48.562;14.440;2023-04-24T06:27:46;9.30;99.90
41592;DHT22;28026;48.562;14.440;2023-04-24T06:30:17;9.40;99.90
41592;DHT22;28026;48.562;14.440;2023-04-24T06:32:48;9.50;99.90
41592;DHT22;28026;48.562;14.440;2023-04-24T06:35:18;9.40;99.90
41592;DHT22;28026;48.562;14.440;2023-04-24T06:37:49;9.60;99.90
41592;DHT22;28026;48.562;14.440;2023-04-24T06:40:21;9.60;99.90
41592;DHT22;28026;48.562;14.440;2023-04-24T06:42:52;9.60;99.90
41592;DHT22;28026;48.562;14.440;2023-04-24T06:45:23;9.80;99.90
41592;DHT22;28026;48.562;14.440;2023-04-24T06:47:54;9.80;99.90
41592;DHT22;28026;48.562;14.440;2023-04-24T06:50:25;9.80;99.90
41592;DHT22;28026;48.562;14.440;2023-04-24T06:52:55;9.90;99.90
41592;DHT22;28026;48.562;14.440;2023-04-24T06:55:26;9.80;99.90
41592;DHT22;28026;48.562;14.440;2023-04-24T06:57:57;9.70;99.90
41592;DHT22;28026;48.562;14.440;2023-04-24T07:00:28;9.60;99.90
41592;DHT22;28026;48.562;14.440;2023-04-24T07:03:00;9.40;99.90
41592;DHT22;28026;48.562;14.440;2023-04-24T07:05:31;9.40;99.90
41592;DHT22;28026;48.562;14.440;2023-04-24T07:08:04;9.50;99.90
41592;DHT22;28026;48.562;14.440;2023-04-24T07:10:35;9.50;99.90
41592;DHT22;28026;48.562;14.440;2023-04-24T07:13:06;9.50;99.90
41592;DHT22;28026;48.562;14.440;2023-04-24T07:15:37;9.40;99.90
41592;DHT22;28026;48.562;14.440;2023-04-24T07:18:08;9.20;99.90
41592;DHT22;28026;48.562;14.440;2023-04-24T07:20:39;9.20;99.90
41592;DHT22;28026;48.562;14.440;2023-04-24T07:23:10;9.30;99.90
41592;DHT22;28026;48.562;14.440;2023-04-24T07:25:41;9.30;99.90
41592;DHT22;28026;48.562;14.440;2023-04-24T07:28:12;9.30;99.90
41592;DHT22;28026;48.562;14.440;2023-04-24T07:30:43;9.70;99.90
41592;DHT22;28026;48.562;14.440;2023-04-24T07:33:14;9.20;99.90
41592;DHT22;28026;48.562;14.440;2023-04-24T07:35:45;9.40;99.90
41592;DHT22;28026;48.562;14.440;2023-04-24T07:38:15;9.30;99.90
41592;DHT22;28026;48.562;14.440;2023-04-24T07:40:46;9.30;99.90
41592;DHT22;28026;48.562;14.440;2023-04-24T07:43:17;9.30;99.90
41592;DHT22;28026;48.562;14.440;2023-04-24T07:45:51;9.30;99.90
41592;DHT22;28026;48.562;14.440;2023-04-24T07:48:22;9.20;99.90
41592;DHT22;28026;48.562;14.440;2023-04-24T07:50:53;9.20;99.90
41592;DHT22;28026;48.562;14.440;2023-04-24T07:53:24;9.30;99.90
41592;DHT22;28026;48.562;14.440;2023-04-24T07:55:55;9.30;99.90
41592;DHT22;28026;48.562;14.440;2023-04-24T07:58:26;9.20;99.90
41592;DHT22;28026;48.562;14.440;2023-04-24T08:00:57;9.40;99.90
41592;DHT22;28026;48.562;14.440;2023-04-24T08:03:28;9.40;99.90
41592;DHT22;28026;48.562;14.440;2023-04-24T08:05:59;9.50;99.90
41592;DHT22;28026;48.562;14.440;2023-04-24T08:08:30;9.50;99.90
41592;DHT22;28026;48.562;14.440;2023-04-24T08:11:00;9.50;99.90
41592;DHT22;28026;48.562;14.440;2023-04-24T08:13:31;9.60;99.90
41592;DHT22;28026;48.562;14.440;2023-04-24T08:16:02;9.40;99.90
41592;DHT22;28026;48.562;14.440;2023-04-24T08:18:33;9.30;99.90
41592;DHT22;28026;48.562;14.440;2023-04-24T08:21:06;9.30;99.90
41592;DHT22;28026;48.562;14.440;2023-04-24T08:23:36;9.40;99.90
41592;DHT22;28026;48.562;14.440;2023-04-24T08:26:07;9.50;99.90
41592;DHT22;28026;48.562;14.440;2023-04-24T08:28:38;9.60;99.90
41592;DHT22;28026;48.562;14.440;2023-04-24T08:31:09;9.70;99.90
41592;DHT22;28026;48.562;14.440;2023-04-24T08:33:40;9.60;99.90
41592;DHT22;28026;48.562;14.440;2023-04-24T08:36:11;9.50;99.90
41592;DHT22;28026;48.562;14.440;2023-04-24T08:38:42;9.60;99.90
41592;DHT22;28026;48.562;14.440;2023-04-24T08:41:13;9.60;99.90
41592;DHT22;28026;48.562;14.440;2023-04-24T08:43:46;9.80;99.90
41592;DHT22;28026;48.562;14.440;2023-04-24T08:46:18;10.00;99.90
41592;DHT22;28026;48.562;14.440;2023-04-24T08:48:50;10.00;99.90
41592;DHT22;28026;48.562;14.440;2023-04-24T08:51:22;10.10;99.90
41592;DHT22;28026;48.562;14.440;2023-04-24T08:53:56;10.10;99.90
41592;DHT22;28026;48.562;14.440;2023-04-24T08:56:28;10.20;99.90
41592;DHT22;28026;48.562;14.440;2023-04-24T08:59:01;10.30;99.90
41592;DHT22;28026;48.562;14.440;2023-04-24T09:01:32;10.30;99.90
41592;DHT22;28026;48.562;14.440;2023-04-24T09:04:05;10.30;99.90
41592;DHT22;28026;48.562;14.440;2023-04-24T09:06:40;9.60;99.90
41592;DHT22;28026;48.562;14.440;2023-04-24T09:09:11;9.60;99.90
41592;DHT22;28026;48.562;14.440;2023-04-24T09:11:42;9.70;99.90
41592;DHT22;28026;48.562;14.440;2023-04-24T09:14:13;9.80;99.90
41592;DHT22;28026;48.562;14.440;2023-04-24T09:16:44;9.40;99.90
41592;DHT22;28026;48.562;14.440;2023-04-24T09:19:15;9.50;99.90
41592;DHT22;28026;48.562;14.440;2023-04-24T09:21:46;9.60;99.90
41592;DHT22;28026;48.562;14.440;2023-04-24T09:24:18;9.60;99.90
41592;DHT22;28026;48.562;14.440;2023-04-24T09:26:56;10.40;99.90
41592;DHT22;28026;48.562;14.440;2023-04-24T09:29:34;9.60;99.90
41592;DHT22;28026;48.562;14.440;2023-04-24T09:32:27;9.60;99.90
41592;DHT22;28026;48.562;14.440;2023-04-24T09:37:45;9.80;99.90
41592;DHT22;28026;48.562;14.440;2023-04-24T09:40:19;9.70;99.90
41592;DHT22;28026;48.562;14.440;2023-04-24T09:42:54;9.60;99.90
41592;DHT22;28026;48.562;14.440;2023-04-24T09:45:37;9.70;99.90
41592;DHT22;28026;48.562;14.440;2023-04-24T09:48:10;9.80;99.90
41592;DHT22;28026;48.562;14.440;2023-04-24T09:50:42;10.10;99.90
41592;DHT22;28026;48.562;14.440;2023-04-24T09:53:17;10.30;99.90
41592;DHT22;28026;48.562;14.440;2023-04-24T09:55:55;10.40;99.90
41592;DHT22;28026;48.562;14.440;2023-04-24T09:58:32;10.70;99.90
41592;DHT22;28026;48.562;14.440;2023-04-24T10:01:04;11.00;99.90
41592;DHT22;28026;48.562;14.440;2023-04-24T10:03:35;10.90;99.90
41592;DHT22;28026;48.562;14.440;2023-04-24T10:06:06;11.10;99.90
41592;DHT22;28026;48.562;14.440;2023-04-24T10:08:39;11.10;99.90
41592;DHT22;28026;48.562;14.440;2023-04-24T10:11:09;10.70;99.90
41592;DHT22;28026;48.562;14.440;2023-04-24T10:13:41;10.60;99.90
41592;DHT22;28026;48.562;14.440;2023-04-24T10:16:13;10.60;99.90
41592;DHT22;28026;48.562;14.440;2023-04-24T10:18:45;10.30;99.90
41592;DHT22;28026;48.562;14.440;2023-04-24T10:21:18;10.30;99.90
41592;DHT22;28026;48.562;14.440;2023-04-24T10:23:49;10.10;99.90
41592;DHT22;28026;48.562;14.440;2023-04-24T10:26:21;10.30;99.90
41592;DHT22;28026;48.562;14.440;2023-04-24T10:28:54;10.40;99.90
41592;DHT22;28026;48.562;14.440;2023-04-24T10:31:30;10.60;99.90
41592;DHT22;28026;48.562;14.440;2023-04-24T10:34:04;10.60;99.90
41592;DHT22;28026;48.562;14.440;2023-04-24T10:36:38;10.40;99.90
41592;DHT22;28026;48.562;14.440;2023-04-24T10:39:16;10.40;99.90
41592;DHT22;28026;48.562;14.440;2023-04-24T10:41:48;10.10;99.90
41592;DHT22;28026;48.562;14.440;2023-04-24T10:44:20;10.10;99.90
41592;DHT22;28026;48.562;14.440;2023-04-24T10:46:53;10.10;99.90
41592;DHT22;28026;48.562;14.440;2023-04-24T10:49:29;10.40;99.90
41592;DHT22;28026;48.562;14.440;2023-04-24T10:52:02;10.60;99.90
41592;DHT22;28026;48.562;14.440;2023-04-24T11:02:46;11.60;99.90
41592;DHT22;28026;48.562;14.440;2023-04-24T11:05:24;12.10;99.90
41592;DHT22;28026;48.562;14.440;2023-04-24T11:08:38;12.50;99.90
41592;DHT22;28026;48.562;14.440;2023-04-24T11:11:16;12.90;99.90
41592;DHT22;28026;48.562;14.440;2023-04-24T11:16:28;13.20;99.90
41592;DHT22;28026;48.562;14.440;2023-04-24T11:21:40;12.80;99.90
41592;DHT22;28026;48.562;14.440;2023-04-24T11:27:19;11.60;99.90
41592;DHT22;28026;48.562;14.440;2023-04-24T11:32:26;11.00;99.90
41592;DHT22;28026;48.562;14.440;2023-04-24T11:37:47;11.50;99.90
41592;DHT22;28026;48.562;14.440;2023-04-24T11:40:21;11.30;99.90
41592;DHT22;28026;48.562;14.440;2023-04-24T11:42:53;11.30;99.90
41592;DHT22;28026;48.562;14.440;2023-04-24T11:45:28;11.10;99.90
41592;DHT22;28026;48.562;14.440;2023-04-24T11:48:01;11.30;99.90
41592;DHT22;28026;48.562;14.440;2023-04-24T11:50:33;11.30;99.90
41592;DHT22;28026;48.562;14.440;2023-04-24T11:53:04;11.60;99.90
41592;DHT22;28026;48.562;14.440;2023-04-24T11:55:35;11.60;99.90
41592;DHT22;28026;48.562;14.440;2023-04-24T11:58:06;11.80;99.90
41592;DHT22;28026;48.562;14.440;2023-04-24T12:00:36;11.80;99.90
41592;DHT22;28026;48.562;14.440;2023-04-24T12:03:09;11.70;99.90
41592;DHT22;28026;48.562;14.440;2023-04-24T12:05:41;11.60;99.90
41592;DHT22;28026;48.562;14.440;2023-04-24T12:08:12;11.70;99.90
41592;DHT22;28026;48.562;14.440;2023-04-24T12:11:00;11.40;99.90
41592;DHT22;28026;48.562;14.440;2023-04-24T12:13:37;10.70;99.90
41592;DHT22;28026;48.562;14.440;2023-04-24T12:16:08;10.30;99.90
41592;DHT22;28026;48.562;14.440;2023-04-24T12:18:42;10.20;99.90
41592;DHT22;28026;48.562;14.440;2023-04-24T12:21:21;10.20;99.90
41592;DHT22;28026;48.562;14.440;2023-04-24T12:23:54;10.20;99.90
41592;DHT22;28026;48.562;14.440;2023-04-24T12:26:26;10.40;99.90
41592;DHT22;28026;48.562;14.440;2023-04-24T12:29:01;10.40;99.90
41592;DHT22;28026;48.562;14.440;2023-04-24T12:31:33;10.40;99.90
41592;DHT22;28026;48.562;14.440;2023-04-24T12:34:04;10.40;99.90
41592;DHT22;28026;48.562;14.440;2023-04-24T12:36:56;10.60;99.90
41592;DHT22;28026;48.562;14.440;2023-04-24T12:39:26;10.30;99.90
41592;DHT22;28026;48.562;14.440;2023-04-24T12:41:57;10.40;99.90
41592;DHT22;28026;48.562;14.440;2023-04-24T12:44:30;10.60;99.90
41592;DHT22;28026;48.562;14.440;2023-04-24T12:47:01;10.50;99.90
41592;DHT22;28026;48.562;14.440;2023-04-24T12:49:33;11.10;99.90
41592;DHT22;28026;48.562;14.440;2023-04-24T12:52:03;10.40;99.90
41592;DHT22;28026;48.562;14.440;2023-04-24T12:54:35;10.70;99.90
41592;DHT22;28026;48.562;14.440;2023-04-24T12:57:05;10.80;99.90
41592;DHT22;28026;48.562;14.440;2023-04-24T12:59:36;10.60;99.90
41592;DHT22;28026;48.562;14.440;2023-04-24T13:02:07;10.40;99.90
41592;DHT22;28026;48.562;14.440;2023-04-24T13:04:39;10.40;99.90
41592;DHT22;28026;48.562;14.440;2023-04-24T13:07:10;10.30;99.90
41592;DHT22;28026;48.562;14.440;2023-04-24T13:09:41;10.30;99.90
41592;DHT22;28026;48.562;14.440;2023-04-24T13:12:13;10.20;99.90
41592;DHT22;28026;48.562;14.440;2023-04-24T13:14:45;9.90;99.90
41592;DHT22;28026;48.562;14.440;2023-04-24T13:17:16;9.90;99.90
41592;DHT22;28026;48.562;14.440;2023-04-24T13:19:49;10.00;99.90
41592;DHT22;28026;48.562;14.440;2023-04-24T13:22:21;10.10;99.90
41592;DHT22;28026;48.562;14.440;2023-04-24T13:24:52;10.10;99.90
41592;DHT22;28026;48.562;14.440;2023-04-24T13:27:23;10.10;99.90
41592;DHT22;28026;48.562;14.440;2023-04-24T13:29:54;10.20;99.90
41592;DHT22;28026;48.562;14.440;2023-04-24T13:32:24;10.60;99.90
41592;DHT22;28026;48.562;14.440;2023-04-24T13:34:56;10.50;99.90
41592;DHT22;28026;48.562;14.440;2023-04-24T13:37:27;10.70;99.90
41592;DHT22;28026;48.562;14.440;2023-04-24T13:39:57;11.40;99.90
41592;DHT22;28026;48.562;14.440;2023-04-24T13:42:28;11.40;99.90
41592;DHT22;28026;48.562;14.440;2023-04-24T13:44:59;11.60;99.90
41592;DHT22;28026;48.562;14.440;2023-04-24T13:47:30;11.80;99.90
41592;DHT22;28026;48.562;14.440;2023-04-24T13:50:01;11.70;99.90
41592;DHT22;28026;48.562;14.440;2023-04-24T13:52:32;11.80;99.90
41592;DHT22;28026;48.562;14.440;2023-04-24T13:55:03;11.20;99.90
41592;DHT22;28026;48.562;14.440;2023-04-24T13:57:34;11.50;99.90
41592;DHT22;28026;48.562;14.440;2023-04-24T14:00:05;11.10;99.90
41592;DHT22;28026;48.562;14.440;2023-04-24T14:02:40;11.10;99.90
41592;DHT22;28026;48.562;14.440;2023-04-24T14:05:12;11.00;99.90
41592;DHT22;28026;48.562;14.440;2023-04-24T14:07:45;11.30;99.90
41592;DHT22;28026;48.562;14.440;2023-04-24T14:10:16;10.60;99.90
41592;DHT22;28026;48.562;14.440;2023-04-24T14:12:47;10.80;99.90
41592;DHT22;28026;48.562;14.440;2023-04-24T14:15:18;10.50;99.90
41592;DHT22;28026;48.562;14.440;2023-04-24T14:17:49;10.50;99.90
41592;DHT22;28026;48.562;14.440;2023-04-24T14:20:20;10.50;99.90
41592;DHT22;28026;48.562;14.440;2023-04-24T14:22:51;10.70;99.90
41592;DHT22;28026;48.562;14.440;2023-04-24T14:25:23;10.70;99.90
41592;DHT22;28026;48.562;14.440;2023-04-24T14:27:54;10.90;99.90
41592;DHT22;28026;48.562;14.440;2023-04-24T14:30:25;10.90;99.90
41592;DHT22;28026;48.562;14.440;2023-04-24T14:32:55;11.20;99.90
41592;DHT22;28026;48.562;14.440;2023-04-24T14:35:26;11.20;99.90
41592;DHT22;28026;48.562;14.440;2023-04-24T14:37:58;11.20;99.90
41592;DHT22;28026;48.562;14.440;2023-04-24T14:40:29;11.40;99.90
41592;DHT22;28026;48.562;14.440;2023-04-24T14:43:01;11.20;99.90
41592;DHT22;28026;48.562;14.440;2023-04-24T14:45:32;11.30;99.90
41592;DHT22;28026;48.562;14.440;2023-04-24T14:48:03;11.20;99.90
41592;DHT22;28026;48.562;14.440;2023-04-24T14:50:35;11.10;99.90
41592;DHT22;28026;48.562;14.440;2023-04-24T14:53:06;11.00;99.90
41592;DHT22;28026;48.562;14.440;2023-04-24T14:55:36;10.70;99.90
41592;DHT22;28026;48.562;14.440;2023-04-24T14:58:08;10.90;99.90
41592;DHT22;28026;48.562;14.440;2023-04-24T15:00:39;10.40;99.90
41592;DHT22;28026;48.562;14.440;2023-04-24T15:03:10;10.20;99.90
41592;DHT22;28026;48.562;14.440;2023-04-24T15:05:40;10.10;99.90
41592;DHT22;28026;48.562;14.440;2023-04-24T15:08:11;9.90;99.90
41592;DHT22;28026;48.562;14.440;2023-04-24T15:10:42;9.80;99.90
41592;DHT22;28026;48.562;14.440;2023-04-24T15:13:13;9.70;99.90
41592;DHT22;28026;48.562;14.440;2023-04-24T15:15:45;9.30;99.90
41592;DHT22;28026;48.562;14.440;2023-04-24T15:18:17;9.20;99.90
41592;DHT22;28026;48.562;14.440;2023-04-24T15:20:48;9.10;99.90
41592;DHT22;28026;48.562;14.440;2023-04-24T15:23:19;9.00;99.90
41592;DHT22;28026;48.562;14.440;2023-04-24T15:25:50;9.10;99.90
41592;DHT22;28026;48.562;14.440;2023-04-24T15:28:21;9.20;99.90
41592;DHT22;28026;48.562;14.440;2023-04-24T15:30:51;9.00;99.90
41592;DHT22;28026;48.562;14.440;2023-04-24T15:33:22;8.80;99.90
41592;DHT22;28026;48.562;14.440;2023-04-24T15:35:53;9.00;99.90
41592;DHT22;28026;48.562;14.440;2023-04-24T15:38:25;9.10;99.90
41592;DHT22;28026;48.562;14.440;2023-04-24T15:40:56;9.10;99.90
41592;DHT22;28026;48.562;14.440;2023-04-24T15:43:27;9.40;99.90
41592;DHT22;28026;48.562;14.440;2023-04-24T15:46:01;9.40;99.90
41592;DHT22;28026;48.562;14.440;2023-04-24T15:48:33;9.40;99.90
41592;DHT22;28026;48.562;14.440;2023-04-24T15:51:04;9.50;99.90
41592;DHT22;28026;48.562;14.440;2023-04-24T15:53:35;9.30;99.90
41592;DHT22;28026;48.562;14.440;2023-04-24T15:56:06;9.20;99.90
41592;DHT22;28026;48.562;14.440;2023-04-24T15:58:37;9.20;99.90
41592;DHT22;28026;48.562;14.440;2023-04-24T16:01:08;9.20;99.90
41592;DHT22;28026;48.562;14.440;2023-04-24T16:03:39;9.30;99.90
41592;DHT22;28026;48.562;14.440;2023-04-24T16:06:09;9.50;99.90
41592;DHT22;28026;48.562;14.440;2023-04-24T16:08:40;9.50;99.90
41592;DHT22;28026;48.562;14.440;2023-04-24T16:11:11;9.60;99.90
41592;DHT22;28026;48.562;14.440;2023-04-24T16:13:42;9.50;99.90
41592;DHT22;28026;48.562;14.440;2023-04-24T16:16:13;9.30;99.90
41592;DHT22;28026;48.562;14.440;2023-04-24T16:18:43;9.30;99.90